Time;durP1;ratioP1;P1;durP2;ratioP2;P2;SDS_P1;SDS_P2;PMS_P1;PMS_P2;Temp;Humidity;BMP_temperature;BMP_pressure;BME280_temperature;BME280_humidity;BME280_pressure;Samples;Min_cycle;Max_cycle;Signal;HPM_P1;HPM_P2
2022/12/19 00:01:59;;;;;;;48.50;20.20;;;-3.40;99.90;;;;;;5036931;28;20025;-66
2022/12/19 00:04:25;;;;;;;42.95;20.17;;;-3.30;99.90;;;;;;5036284;28;20366;-67
2022/12/19 00:06:50;;;;;;;42.25;18.73;;;-3.30;99.90;;;;;;5037124;28;20492;-66
2022/12/19 00:09:16;;;;;;;43.38;20.23;;;-3.40;99.90;;;;;;5036880;28;20036;-66
2022/12/19 00:11:41;;;;;;;56.05;20.17;;;-3.40;99.90;;;;;;5036807;28;20388;-66
2022/12/19 00:14:10;;;;;;;49.35;19.52;;;-3.40;99.90;;;;;;5036617;28;20044;-67
2022/12/19 00:16:35;;;;;;;45.97;19.33;;;-3.40;99.90;;;;;;5036257;28;20030;-67
2022/12/19 00:19:01;;;;;;;48.47;19.48;;;-3.30;99.90;;;;;;5036849;28;20031;-66
2022/12/19 00:21:32;;;;;;;38.40;18.65;;;-3.40;99.90;;;;;;5036626;28;20028;-66
2022/12/19 00:23:58;;;;;;;50.50;18.77;;;-3.30;99.90;;;;;;5036791;28;20393;-66
2022/12/19 00:26:24;;;;;;;41.17;19.20;;;-3.30;99.90;;;;;;5036520;28;20033;-67
2022/12/19 00:28:57;;;;;;;42.28;18.70;;;-3.30;99.90;;;;;;5036179;28;20029;-67
2022/12/19 00:31:23;;;;;;;40.97;19.17;;;-3.30;99.90;;;;;;5036534;28;20025;-67
2022/12/19 00:33:49;;;;;;;48.00;20.60;;;-3.20;99.90;;;;;;5017026;28;20062;-67
2022/12/19 00:36:21;;;;;;;38.58;19.50;;;-3.20;99.90;;;;;;5017481;28;20061;-67
2022/12/19 00:38:47;;;;;;;43.13;20.00;;;-3.20;99.90;;;;;;5034796;28;20037;-67
2022/12/19 00:41:22;;;;;;;44.63;18.95;;;-3.20;99.90;;;;;;5036217;28;20022;-67
2022/12/19 00:43:56;;;;;;;49.63;19.38;;;-3.10;99.90;;;;;;5019179;28;20507;-67
2022/12/19 00:46:22;;;;;;;42.60;18.08;;;-3.10;99.90;;;;;;5036533;28;20477;-66
2022/12/19 00:48:48;;;;;;;38.55;17.90;;;-3.00;99.90;;;;;;5036426;28;20034;-66
2022/12/19 00:51:16;;;;;;;38.72;19.02;;;-3.00;99.90;;;;;;5036325;28;20389;-67
2022/12/19 00:53:43;;;;;;;48.83;18.42;;;-2.90;99.90;;;;;;5035455;28;20030;-66
2022/12/19 00:56:12;;;;;;;40.00;19.05;;;-2.90;99.90;;;;;;5036268;28;20025;-66
2022/12/19 00:58:37;;;;;;;42.65;18.70;;;-2.90;99.90;;;;;;5036124;28;20068;-67
2022/12/19 01:01:19;;;;;;;39.70;18.08;;;-2.80;99.90;;;;;;5035392;28;20045;-67
2022/12/19 01:03:45;;;;;;;41.35;19.27;;;-2.80;99.90;;;;;;5036007;28;20477;-67
2022/12/19 01:06:11;;;;;;;39.85;17.40;;;-2.80;99.90;;;;;;5035819;28;20501;-66
2022/12/19 01:08:37;;;;;;;43.45;20.70;;;-2.70;99.90;;;;;;5036016;28;20112;-66
2022/12/19 01:11:03;;;;;;;49.60;18.73;;;-2.70;99.90;;;;;;5035256;28;20025;-66
2022/12/19 01:13:30;;;;;;;38.42;17.52;;;-2.70;99.90;;;;;;5034978;28;20036;-67
2022/12/19 01:16:08;;;;;;;44.20;19.17;;;-2.60;99.90;;;;;;5035908;28;20053;-66
2022/12/19 01:18:34;;;;;;;49.28;19.60;;;-2.60;99.90;;;;;;5035512;28;20037;-67
2022/12/19 01:21:02;;;;;;;40.60;19.45;;;-2.60;99.90;;;;;;5036050;28;20071;-66
2022/12/19 01:23:28;;;;;;;34.70;16.67;;;-2.50;99.90;;;;;;5035413;28;20029;-66
2022/12/19 01:25:54;;;;;;;41.65;19.25;;;-2.50;99.90;;;;;;5035169;28;20024;-66
2022/12/19 01:28:20;;;;;;;44.20;19.23;;;-2.50;99.90;;;;;;5035380;28;20036;-66
2022/12/19 01:30:47;;;;;;;46.92;19.52;;;-2.50;99.90;;;;;;5035237;28;20021;-66
2022/12/19 01:33:14;;;;;;;38.08;17.60;;;-2.40;99.90;;;;;;5035244;28;20362;-66
2022/12/19 01:35:40;;;;;;;45.13;18.80;;;-2.40;99.90;;;;;;5034756;28;20028;-66
2022/12/19 01:38:06;;;;;;;42.88;18.60;;;-2.30;99.90;;;;;;5035070;28;20477;-66
2022/12/19 01:40:33;;;;;;;40.35;19.65;;;-2.30;99.90;;;;;;5035060;28;20087;-66
2022/12/19 01:43:00;;;;;;;44.55;20.02;;;-2.30;99.90;;;;;;5035207;28;20049;-67
2022/12/19 01:45:29;;;;;;;42.75;17.95;;;-2.30;99.90;;;;;;5034551;28;20028;-66
2022/12/19 01:48:04;;;;;;;45.85;20.77;;;-2.20;99.90;;;;;;5035269;28;20018;-67
2022/12/19 01:50:50;;;;;;;46.85;19.55;;;-2.20;99.90;;;;;;5035281;28;20026;-66
2022/12/19 01:53:16;;;;;;;40.28;19.45;;;-2.20;99.90;;;;;;5035153;28;20034;-66
2022/12/19 01:55:43;;;;;;;37.10;17.38;;;-2.20;99.90;;;;;;5035129;28;20067;-66
2022/12/19 01:58:10;;;;;;;49.17;21.02;;;-2.20;99.90;;;;;;5034236;28;20034;-67
2022/12/19 02:00:35;;;;;;;43.40;19.58;;;-2.10;99.90;;;;;;5035058;28;20085;-66
2022/12/19 02:03:13;;;;;;;46.42;19.60;;;-2.10;99.90;;;;;;5034689;28;20022;-67
2022/12/19 02:05:39;;;;;;;48.78;20.38;;;-2.10;99.90;;;;;;5034056;28;20029;-66
2022/12/19 02:08:06;;;;;;;42.78;18.13;;;-2.10;99.90;;;;;;5034851;28;20440;-66
2022/12/19 02:10:31;;;;;;;45.08;19.88;;;-2.10;99.90;;;;;;5035044;28;20152;-67
2022/12/19 02:12:57;;;;;;;45.20;21.65;;;-2.10;99.90;;;;;;5034096;28;20100;-67
2022/12/19 02:15:23;;;;;;;48.42;20.42;;;-2.00;99.90;;;;;;5034204;28;20116;-67
2022/12/19 02:18:23;;;;;;;50.67;20.40;;;-2.00;99.90;;;;;;5034950;28;20080;-67
2022/12/19 02:21:00;;;;;;;42.28;18.33;;;-2.00;99.90;;;;;;5034621;28;20036;-66
2022/12/19 02:24:12;;;;;;;43.15;19.95;;;-1.90;99.90;;;;;;5033238;28;20022;-67
2022/12/19 02:27:05;;;;;;;43.15;20.10;;;-2.00;99.90;;;;;;5022660;28;20048;-67
2022/12/19 02:29:59;;;;;;;43.22;19.45;;;-1.90;99.90;;;;;;5034211;28;20485;-66
2022/12/19 02:32:32;;;;;;;47.08;21.13;;;-1.90;99.90;;;;;;5019153;28;20029;-67
2022/12/19 02:35:14;;;;;;;44.45;20.85;;;-1.90;99.90;;;;;;5014404;28;20029;-66
2022/12/19 02:37:48;;;;;;;43.90;20.75;;;-1.90;99.90;;;;;;5013869;28;20558;-67
2022/12/19 02:40:26;;;;;;;48.42;20.38;;;-1.90;99.90;;;;;;5014546;28;20041;-66
2022/12/19 02:42:57;;;;;;;42.78;20.13;;;-1.80;99.90;;;;;;5030765;28;20017;-67
2022/12/19 02:45:26;;;;;;;46.20;19.33;;;-1.80;99.90;;;;;;5034062;28;20025;-67
2022/12/19 02:47:52;;;;;;;44.13;19.73;;;-1.80;99.90;;;;;;5033351;28;20032;-67
2022/12/19 02:50:18;;;;;;;47.08;19.40;;;-1.80;99.90;;;;;;5033670;28;20133;-67
2022/12/19 02:52:46;;;;;;;39.53;18.13;;;-1.70;99.90;;;;;;5033859;28;20037;-66
2022/12/19 02:55:17;;;;;;;46.58;21.20;;;-1.70;99.90;;;;;;5033708;28;20033;-66
2022/12/19 02:57:58;;;;;;;44.17;20.30;;;-1.70;99.90;;;;;;5033831;28;20026;-66
2022/12/19 03:00:26;;;;;;;39.75;18.80;;;-1.60;99.90;;;;;;5033417;28;20031;-67
2022/12/19 03:03:10;;;;;;;36.85;19.38;;;-1.60;99.90;;;;;;5033907;28;20029;-66
2022/12/19 03:06:03;;;;;;;48.97;22.05;;;-1.60;99.90;;;;;;5033917;28;20473;-66
2022/12/19 03:08:47;;;;;;;47.88;22.10;;;-1.60;99.90;;;;;;5033912;28;20037;-66
2022/12/19 03:11:13;;;;;;;47.33;20.15;;;-1.50;99.90;;;;;;5033849;28;20108;-66
2022/12/19 03:13:47;;;;;;;44.70;19.90;;;-1.50;99.90;;;;;;5033131;28;20036;-67
2022/12/19 03:16:12;;;;;;;;;;;-1.40;99.90;;;;;;5034065;28;20029;-66
2022/12/19 03:18:39;;;;;;;53.60;22.73;;;-1.40;99.90;;;;;;5033344;28;19912;-66
2022/12/19 03:21:10;;;;;;;46.40;20.33;;;-1.40;99.90;;;;;;5033162;28;20026;-67
2022/12/19 03:23:36;;;;;;;46.80;21.50;;;-1.40;99.90;;;;;;5033587;28;20024;-66
2022/12/19 03:26:06;;;;;;;51.30;22.13;;;-1.40;99.90;;;;;;5033631;28;20045;-66
2022/12/19 03:28:43;;;;;;;53.42;22.08;;;-1.30;99.90;;;;;;5033540;28;20024;-66
2022/12/19 03:31:11;;;;;;;43.70;21.25;;;-1.30;99.90;;;;;;5033308;28;20025;-66
2022/12/19 03:33:38;;;;;;;42.67;19.48;;;-1.40;99.90;;;;;;5032497;28;20032;-67
2022/12/19 03:36:09;;;;;;;53.88;22.27;;;-1.40;99.90;;;;;;5033400;28;20384;-66
2022/12/19 03:38:36;;;;;;;55.92;22.48;;;-1.40;99.90;;;;;;5033117;28;20037;-66
2022/12/19 03:41:02;;;;;;;47.00;21.40;;;-1.30;99.90;;;;;;5033168;28;20026;-66
2022/12/19 03:43:29;;;;;;;47.00;21.05;;;-1.30;99.90;;;;;;5032582;28;20031;-67
2022/12/19 03:46:10;;;;;;;44.05;19.42;;;-1.30;99.90;;;;;;5033420;28;20068;-66
2022/12/19 03:48:45;;;;;;;46.63;20.67;;;-1.40;99.90;;;;;;5033382;28;20488;-66
2022/12/19 03:51:57;;;;;;;51.40;21.23;;;-1.30;99.90;;;;;;5033811;28;20127;-67
2022/12/19 03:54:25;;;;;;;50.33;20.75;;;-1.40;99.90;;;;;;5024881;28;20477;-66
2022/12/19 03:57:15;;;;;;;48.25;21.25;;;-1.40;99.90;;;;;;5032488;28;20029;-67
2022/12/19 04:00:05;;;;;;;46.33;20.88;;;-1.40;99.90;;;;;;5032958;28;20381;-66
2022/12/19 04:02:34;;;;;;;41.05;20.23;;;-1.40;99.90;;;;;;5032909;28;20036;-66
2022/12/19 04:05:05;;;;;;;50.75;22.50;;;-1.30;99.90;;;;;;5032893;28;20028;-66
2022/12/19 04:07:31;;;;;;;45.10;21.67;;;-1.20;99.90;;;;;;5033451;28;20491;-66
2022/12/19 04:10:00;;;;;;;43.78;20.80;;;-1.20;99.90;;;;;;5032388;28;20552;-67
2022/12/19 04:12:32;;;;;;;42.58;20.98;;;-1.20;99.90;;;;;;5032810;28;20489;-66
2022/12/19 04:14:57;;;;;;;51.08;21.67;;;-1.20;99.90;;;;;;5032920;28;20044;-67
2022/12/19 04:17:26;;;;;;;53.22;22.83;;;-1.10;99.90;;;;;;5033082;28;20034;-66
2022/12/19 04:20:01;;;;;;;50.42;21.35;;;-1.00;99.90;;;;;;5032202;28;20097;-67
2022/12/19 04:22:52;;;;;;;48.20;21.38;;;-1.00;99.90;;;;;;5032807;28;20029;-66
2022/12/19 04:25:27;;;;;;;41.90;21.77;;;-1.00;99.90;;;;;;5032732;28;20108;-66
2022/12/19 04:27:57;;;;;;;46.53;22.27;;;-1.00;99.90;;;;;;5014823;28;20057;-67
2022/12/19 04:30:22;;;;;;;50.40;23.15;;;-0.90;99.90;;;;;;5021279;28;20022;-67
2022/12/19 04:32:49;;;;;;;51.85;21.88;;;-0.90;99.90;;;;;;5032935;28;20025;-67
2022/12/19 04:35:15;;;;;;;48.60;20.67;;;-0.90;99.90;;;;;;5032259;28;20484;-67
2022/12/19 04:37:41;;;;;;;54.70;23.83;;;-0.90;99.90;;;;;;5032051;28;20080;-67
2022/12/19 04:40:08;;;;;;;44.55;21.17;;;-0.90;99.90;;;;;;5032452;28;20087;-67
2022/12/19 04:42:34;;;;;;;48.00;22.30;;;-0.80;99.90;;;;;;5032843;28;20157;-66
2022/12/19 04:45:00;;;;;;;48.17;22.23;;;-0.80;99.90;;;;;;5032352;28;20092;-67
2022/12/19 04:47:26;;;;;;;45.28;21.92;;;-0.80;99.90;;;;;;5034540;28;20025;-67
2022/12/19 04:49:51;;;;;;;55.95;23.35;;;-0.70;99.90;;;;;;5036129;28;20036;-66
2022/12/19 04:52:17;;;;;;;44.88;21.73;;;-0.70;99.90;;;;;;5036067;28;20029;-67
2022/12/19 04:54:43;;;;;;;48.92;22.33;;;-0.70;99.90;;;;;;5036130;28;20040;-67
2022/12/19 04:57:08;;;;;;;44.35;20.48;;;-0.70;99.90;;;;;;5035691;28;20480;-67
2022/12/19 04:59:34;;;;;;;57.00;24.52;;;-0.70;99.90;;;;;;5035874;28;20037;-66
2022/12/19 05:01:59;;;;;;;48.78;22.38;;;-0.70;99.90;;;;;;5035868;28;20014;-67
2022/12/19 05:04:25;;;;;;;51.60;22.25;;;-0.60;99.90;;;;;;5035808;28;20025;-67
2022/12/19 05:06:50;;;;;;;57.00;24.58;;;-0.60;99.90;;;;;;5036111;28;20021;-66
2022/12/19 05:09:16;;;;;;;51.35;23.50;;;-0.60;99.90;;;;;;5035212;28;20022;-67
2022/12/19 05:11:41;;;;;;;56.03;24.83;;;-0.60;99.90;;;;;;5035949;28;20025;-67
2022/12/19 05:14:08;;;;;;;46.53;24.35;;;-0.60;99.90;;;;;;5035986;28;20096;-67
2022/12/19 05:16:33;;;;;;;54.78;23.58;;;-0.50;99.90;;;;;;5035642;28;20034;-67
2022/12/19 05:19:00;;;;;;;51.50;23.02;;;-0.50;99.90;;;;;;5035020;28;20485;-67
2022/12/19 05:21:26;;;;;;;52.83;23.70;;;-0.50;99.90;;;;;;5035800;28;20076;-66
2022/12/19 05:23:51;;;;;;;48.88;23.98;;;-0.50;99.90;;;;;;5035421;28;20026;-67
2022/12/19 05:26:17;;;;;;;53.53;25.38;;;-0.40;99.90;;;;;;5034806;28;20358;-67
2022/12/19 05:28:42;;;;;;;51.03;24.98;;;-0.40;99.90;;;;;;5035452;28;20034;-66
2022/12/19 05:31:13;;;;;;;49.45;23.23;;;-0.40;99.90;;;;;;5035360;28;20501;-67
2022/12/19 05:33:40;;;;;;;54.08;24.42;;;-0.40;99.90;;;;;;5035249;28;20041;-66
2022/12/19 05:36:07;;;;;;;57.78;27.23;;;-0.40;99.90;;;;;;5035215;28;20026;-67
2022/12/19 05:38:33;;;;;;;56.95;26.48;;;-0.40;99.90;;;;;;5034527;28;20034;-67
2022/12/19 05:40:59;;;;;;;52.63;24.48;;;-0.40;99.90;;;;;;5035163;28;20076;-66
2022/12/19 05:43:25;;;;;;;53.50;26.30;;;-0.40;99.90;;;;;;5035030;28;20060;-67
2022/12/19 05:45:51;;;;;;;51.40;24.80;;;-0.40;99.90;;;;;;5034625;28;20519;-67
2022/12/19 05:48:16;;;;;;;55.65;26.48;;;-0.40;99.90;;;;;;5035171;28;20401;-67
2022/12/19 05:50:46;;;;;;;52.58;24.50;;;-0.40;99.90;;;;;;5034852;28;20504;-67
2022/12/19 05:53:12;;;;;;;60.08;25.63;;;-0.40;99.90;;;;;;5035183;28;20049;-67
2022/12/19 05:55:38;;;;;;;54.20;25.85;;;-0.30;99.90;;;;;;5034857;28;20079;-67
2022/12/19 05:58:03;;;;;;;51.88;25.17;;;-0.40;99.90;;;;;;5014564;28;20424;-67
2022/12/19 06:00:29;;;;;;;63.22;24.63;;;-0.30;99.90;;;;;;5015471;28;20084;-66
2022/12/19 06:02:54;;;;;;;49.17;24.67;;;-0.30;99.90;;;;;;5026704;28;20026;-67
2022/12/19 06:05:20;;;;;;;53.55;22.75;;;-0.30;99.90;;;;;;5014869;28;20417;-66
2022/12/19 06:07:45;;;;;;;54.70;26.48;;;-0.20;99.90;;;;;;5014911;28;20490;-66
2022/12/19 06:10:11;;;;;;;58.17;27.35;;;-0.20;99.90;;;;;;5014843;28;20028;-67
2022/12/19 06:12:36;;;;;;;64.35;25.60;;;-0.20;99.90;;;;;;5014218;28;20026;-67
2022/12/19 06:15:02;;;;;;;61.03;26.52;;;-0.20;99.90;;;;;;5032821;28;20120;-67
2022/12/19 06:17:28;;;;;;;51.05;24.45;;;-0.20;99.90;;;;;;5034434;28;20113;-67
2022/12/19 06:19:53;;;;;;;56.55;26.90;;;-0.20;99.90;;;;;;5034971;28;20476;-66
2022/12/19 06:22:19;;;;;;;61.13;26.33;;;-0.20;99.90;;;;;;5033926;28;20489;-67
2022/12/19 06:24:44;;;;;;;60.72;26.58;;;-0.20;99.90;;;;;;5034381;28;20028;-66
2022/12/19 06:27:10;;;;;;;64.72;28.90;;;-0.20;99.90;;;;;;5034143;28;20049;-67
2022/12/19 06:29:35;;;;;;;70.82;29.73;;;-0.30;99.90;;;;;;5034254;28;20061;-67
2022/12/19 06:32:01;;;;;;;66.28;29.63;;;-0.30;99.90;;;;;;5034140;28;20038;-67
2022/12/19 06:34:26;;;;;;;65.45;29.10;;;-0.20;99.90;;;;;;5033519;28;20041;-67
2022/12/19 06:36:52;;;;;;;66.00;29.25;;;-0.20;99.90;;;;;;5034135;28;20123;-67
2022/12/19 06:39:17;;;;;;;73.60;32.03;;;-0.20;99.90;;;;;;5033901;28;20036;-66
2022/12/19 06:44:27;;;;;;;63.65;30.45;;;-0.20;99.90;;;;;;5014348;28;20036;-67
2022/12/19 06:46:53;;;;;;;77.13;30.83;;;-0.10;99.90;;;;;;5015967;28;20038;-67
2022/12/19 06:49:18;;;;;;;67.82;30.58;;;-0.10;99.90;;;;;;5033396;28;20101;-67
2022/12/19 06:51:44;;;;;;;69.25;31.73;;;-0.10;99.90;;;;;;5034038;28;20075;-67
2022/12/19 06:54:11;;;;;;;69.05;30.90;;;0.00;99.90;;;;;;5033726;28;20053;-67
2022/12/19 06:56:38;;;;;;;66.10;31.77;;;0.00;99.90;;;;;;5033895;28;20392;-67
2022/12/19 06:59:05;;;;;;;76.13;32.80;;;0.00;99.90;;;;;;5034236;28;20457;-66
2022/12/19 07:01:43;;;;;;;70.68;32.88;;;0.10;99.90;;;;;;5033699;28;20025;-67
2022/12/19 07:04:12;;;;;;;78.82;31.70;;;0.10;99.90;;;;;;5033081;28;20037;-67
2022/12/19 07:06:38;;;;;;;72.50;34.47;;;0.00;99.90;;;;;;5033590;28;20076;-66
2022/12/19 07:09:05;;;;;;;81.53;35.00;;;0.10;99.90;;;;;;5032796;28;20057;-67
2022/12/19 07:11:30;;;;;;;77.15;34.88;;;0.10;99.90;;;;;;5034052;28;20037;-68
2022/12/19 07:13:56;;;;;;;75.63;33.88;;;0.10;99.90;;;;;;5033435;28;20030;-67
2022/12/19 07:16:23;;;;;;;89.68;35.13;;;0.20;99.90;;;;;;5033189;28;20046;-67
2022/12/19 07:18:49;;;;;;;77.25;32.72;;;0.20;99.90;;;;;;5033215;28;20095;-67
2022/12/19 07:21:15;;;;;;;87.60;35.45;;;0.20;99.90;;;;;;5033405;28;20108;-67
2022/12/19 07:23:41;;;;;;;89.53;36.00;;;0.20;99.90;;;;;;5033536;28;20029;-67
2022/12/19 07:26:07;;;;;;;90.38;36.03;;;0.30;99.90;;;;;;5033443;28;20032;-67
2022/12/19 07:28:33;;;;;;;76.13;36.95;;;0.30;99.90;;;;;;5033517;28;20473;-68
2022/12/19 07:30:58;;;;;;;81.47;34.55;;;0.30;99.90;;;;;;5032702;28;20554;-67
2022/12/19 07:33:24;;;;;;;88.25;36.85;;;0.30;99.90;;;;;;5028617;28;20056;-67
2022/12/19 07:35:50;;;;;;;90.53;39.00;;;0.40;99.90;;;;;;5013654;28;20033;-67
2022/12/19 07:38:16;;;;;;;79.75;36.22;;;0.40;99.90;;;;;;5012770;28;20034;-67
2022/12/19 07:40:42;;;;;;;87.28;36.20;;;0.40;99.90;;;;;;5013306;28;20057;-67
2022/12/19 07:43:08;;;;;;;88.90;37.50;;;0.50;99.90;;;;;;5020470;28;20362;-67
2022/12/19 07:45:36;;;;;;;90.15;38.67;;;0.50;99.90;;;;;;5033105;28;20037;-68
2022/12/19 07:48:03;;;;;;;93.70;40.58;;;0.50;99.90;;;;;;5032558;28;20026;-67
2022/12/19 07:50:29;;;;;;;93.63;38.03;;;0.50;99.90;;;;;;5033278;28;20108;-67
2022/12/19 07:52:56;;;;;;;88.18;38.78;;;0.50;99.90;;;;;;5033142;28;20442;-67
2022/12/19 07:55:21;;;;;;;86.68;37.80;;;0.60;99.90;;;;;;5032983;28;20488;-67
2022/12/19 07:57:47;;;;;;;89.97;38.17;;;0.60;99.90;;;;;;5033138;28;20026;-67
2022/12/19 08:00:13;;;;;;;94.85;38.55;;;0.70;99.90;;;;;;5032160;28;20028;-67
2022/12/19 08:02:39;;;;;;;85.93;36.95;;;0.60;99.90;;;;;;5033048;28;20038;-67
2022/12/19 08:05:04;;;;;;;95.75;40.83;;;0.60;99.90;;;;;;5032875;28;20118;-67
2022/12/19 08:07:30;;;;;;;86.18;38.78;;;0.70;99.90;;;;;;5032230;28;20044;-68
2022/12/19 08:09:56;;;;;;;97.97;40.90;;;0.80;99.90;;;;;;5033155;28;20064;-67
2022/12/19 08:12:21;;;;;;;85.03;38.30;;;1.00;99.90;;;;;;5032874;28;20104;-67
2022/12/19 08:14:47;;;;;;;90.32;36.72;;;1.00;99.90;;;;;;5032769;28;20026;-67
2022/12/19 08:17:13;;;;;;;88.38;37.47;;;1.10;99.90;;;;;;5032769;28;20083;-67
2022/12/19 08:19:38;;;;;;;92.10;38.35;;;1.10;99.90;;;;;;5032122;28;20076;-67
2022/12/19 08:22:04;;;;;;;88.72;38.25;;;1.10;99.90;;;;;;5034933;28;20071;-66
2022/12/19 08:24:29;;;;;;;86.60;35.97;;;1.00;99.90;;;;;;5036474;28;20096;-68
2022/12/19 08:26:55;;;;;;;88.20;35.75;;;1.10;99.90;;;;;;5036523;28;20416;-67
2022/12/19 08:29:21;;;;;;;86.93;36.45;;;1.20;99.90;;;;;;5036027;28;20550;-68
2022/12/19 08:31:47;;;;;;;86.25;35.90;;;1.30;99.90;;;;;;5036497;28;20033;-67
2022/12/19 08:34:13;;;;;;;84.60;35.85;;;1.30;99.90;;;;;;5036266;28;20481;-68
2022/12/19 08:36:38;;;;;;;77.13;33.75;;;1.40;99.90;;;;;;5036279;28;20048;-68
2022/12/19 08:39:05;;;;;;;81.55;36.42;;;1.40;99.90;;;;;;5035805;28;20041;-68
2022/12/19 08:41:30;;;;;;;85.82;35.38;;;1.40;99.90;;;;;;5035797;28;20017;-68
2022/12/19 08:43:56;;;;;;;75.53;35.97;;;1.40;99.90;;;;;;5035937;28;20596;-67
2022/12/19 08:46:22;;;;;;;85.20;36.53;;;1.50;99.90;;;;;;5026254;28;20030;-68
2022/12/19 08:48:48;;;;;;;91.38;37.35;;;1.40;99.90;;;;;;5028823;28;20109;-68
2022/12/19 08:51:15;;;;;;;83.40;34.05;;;1.50;99.90;;;;;;5026657;28;20037;-68
2022/12/19 08:53:42;;;;;;;87.22;36.47;;;1.50;99.90;;;;;;5023808;28;20055;-69
2022/12/19 08:56:17;;;;;;;82.45;35.22;;;1.50;99.90;;;;;;5024728;28;20501;-68
2022/12/19 08:58:43;;;;;;;81.45;34.05;;;1.50;99.90;;;;;;5023421;28;20366;-68
2022/12/19 09:01:19;;;;;;;78.05;34.92;;;1.50;99.90;;;;;;5028388;28;20079;-68
2022/12/19 09:03:46;;;;;;;79.18;35.95;;;1.50;99.90;;;;;;5035226;28;20010;-68
2022/12/19 09:06:13;;;;;;;80.32;33.42;;;1.50;99.90;;;;;;5035679;28;20025;-67
2022/12/19 09:08:39;;;;;;;87.95;35.90;;;1.50;99.90;;;;;;5034928;28;20060;-67
2022/12/19 09:11:11;;;;;;;77.40;36.70;;;1.60;99.90;;;;;;5035744;28;20499;-67
2022/12/19 09:13:38;;;;;;;86.63;35.47;;;1.50;99.90;;;;;;5035705;28;20362;-67
2022/12/19 09:16:07;;;;;;;78.13;32.83;;;1.60;99.90;;;;;;5035159;28;20433;-67
2022/12/19 09:18:33;;;;;;;79.32;34.15;;;1.70;99.90;;;;;;5035475;28;20025;-67
2022/12/19 09:20:59;;;;;;;78.18;32.45;;;1.60;99.90;;;;;;5035278;28;20036;-67
2022/12/19 09:23:26;;;;;;;81.53;32.95;;;1.70;99.90;;;;;;5035351;28;20397;-67
2022/12/19 09:25:54;;;;;;;78.28;31.00;;;1.70;99.90;;;;;;5035193;28;20025;-68
2022/12/19 09:28:19;;;;;;;65.75;30.60;;;1.80;99.90;;;;;;5034805;28;20080;-67
2022/12/19 09:30:45;;;;;;;78.55;30.88;;;1.80;99.90;;;;;;5035259;28;20037;-68
2022/12/19 09:33:11;;;;;;;72.13;29.73;;;1.80;99.90;;;;;;5034674;28;20032;-67
2022/12/19 09:35:37;;;;;;;67.65;31.10;;;1.80;99.90;;;;;;5035263;28;20036;-68
2022/12/19 09:38:02;;;;;;;65.07;29.77;;;1.80;99.90;;;;;;5034324;28;20108;-67
2022/12/19 09:40:41;;;;;;;73.97;33.50;;;1.80;99.90;;;;;;5035167;28;20029;-68
2022/12/19 09:43:19;;;;;;;64.72;28.80;;;1.90;99.90;;;;;;5034858;28;20032;-67
2022/12/19 09:46:03;;;;;;;66.50;29.98;;;1.80;99.90;;;;;;5034908;28;20033;-67
2022/12/19 09:48:28;;;;;;;75.57;28.45;;;1.80;99.90;;;;;;5035010;28;20082;-67
2022/12/19 09:51:00;;;;;;;61.20;29.27;;;1.80;99.90;;;;;;5034598;28;20047;-67
2022/12/19 09:53:49;;;;;;;69.30;28.73;;;1.80;99.90;;;;;;5034150;28;20049;-67
2022/12/19 09:56:15;;;;;;;58.55;27.40;;;1.90;99.90;;;;;;5034633;28;20026;-67
2022/12/19 09:58:46;;;;;;;62.20;28.98;;;1.90;99.90;;;;;;5034739;28;20028;-67
2022/12/19 10:01:21;;;;;;;66.00;29.23;;;1.90;99.90;;;;;;5034401;28;20072;-67
2022/12/19 10:03:57;;;;;;;60.03;28.77;;;1.90;99.90;;;;;;5021102;28;20025;-68
2022/12/19 10:06:23;;;;;;;63.20;28.90;;;1.90;99.90;;;;;;5025778;28;20044;-67
2022/12/19 10:08:50;;;;;;;56.78;26.20;;;2.00;99.90;;;;;;5034475;28;20044;-68
2022/12/19 10:11:16;;;;;;;56.40;27.08;;;2.00;99.90;;;;;;5034553;28;20022;-68
2022/12/19 10:13:56;;;;;;;52.78;25.30;;;1.90;99.90;;;;;;5034136;28;20510;-68
2022/12/19 10:16:34;;;;;;;60.30;27.63;;;2.00;99.90;;;;;;5020116;23;20057;-69
2022/12/19 10:19:06;;;;;;;60.38;26.65;;;2.00;99.90;;;;;;4994964;28;20077;-69
2022/12/19 10:21:52;;;;;;;55.50;27.58;;;2.00;99.90;;;;;;4994962;28;20029;-69
2022/12/19 10:24:37;;;;;;;67.10;26.70;;;2.10;99.90;;;;;;4994160;28;20482;-69
2022/12/19 10:27:14;;;;;;;59.58;27.90;;;2.10;99.90;;;;;;4975543;28;20034;-69
2022/12/19 10:30:01;;;;;;;53.83;27.92;;;2.10;99.90;;;;;;4975550;28;20482;-69
2022/12/19 10:32:41;;;;;;;61.28;30.05;;;2.10;99.90;;;;;;4976406;28;20114;-69
2022/12/19 10:35:15;;;;;;;58.15;29.08;;;2.10;99.90;;;;;;4984864;28;20099;-69
2022/12/19 10:38:06;;;;;;;57.03;28.27;;;2.10;99.90;;;;;;4975348;28;20101;-69
2022/12/19 10:40:37;;;;;;;71.00;28.80;;;2.10;99.90;;;;;;4975078;28;20466;-69
2022/12/19 10:43:12;;;;;;;58.25;27.38;;;2.20;99.90;;;;;;4975305;28;20019;-69
2022/12/19 10:46:01;;;;;;;64.65;29.50;;;2.10;99.90;;;;;;4974976;28;20023;-69
2022/12/19 10:48:27;;;;;;;73.32;30.55;;;2.20;99.90;;;;;;4974774;28;20035;-70
2022/12/19 10:50:53;;;;;;;62.63;28.67;;;2.20;99.90;;;;;;4975367;28;20493;-69
2022/12/19 10:53:27;;;;;;;63.22;28.40;;;2.10;99.90;;;;;;4975044;28;20030;-70
2022/12/19 10:55:53;;;;;;;67.00;29.23;;;2.20;99.90;;;;;;4975389;28;20077;-69
2022/12/19 10:58:25;;;;;;;58.33;28.17;;;2.30;99.90;;;;;;4974573;28;20023;-69
2022/12/19 11:01:04;;;;;;;56.67;29.15;;;2.30;99.90;;;;;;4974848;28;20022;-69
2022/12/19 11:03:32;;;;;;;62.40;28.48;;;2.30;99.90;;;;;;4975183;28;20030;-69
2022/12/19 11:05:58;;;;;;;57.25;29.13;;;2.30;99.90;;;;;;4974453;28;20023;-69
2022/12/19 11:08:30;;;;;;;66.85;29.90;;;2.30;99.90;;;;;;4974791;28;20026;-69
2022/12/19 11:11:03;;;;;;;55.65;27.83;;;2.30;99.90;;;;;;4975035;28;20026;-69
2022/12/19 11:13:38;;;;;;;73.28;30.08;;;2.30;99.90;;;;;;4975198;28;20023;-69
2022/12/19 11:16:06;;;;;;;59.35;28.85;;;2.30;99.90;;;;;;4974205;28;20038;-69
2022/12/19 11:18:39;;;;;;;61.50;29.95;;;2.30;99.90;;;;;;4975221;28;20027;-69
2022/12/19 11:21:12;;;;;;;;;;;2.30;99.90;;;;;;4975348;28;20114;-69
2022/12/19 11:23:49;;;;;;;70.18;30.05;;;2.30;99.90;;;;;;4974789;28;19913;-69
2022/12/19 11:26:46;;;;;;;60.28;27.52;;;2.30;99.90;;;;;;4989454;28;20434;-69
2022/12/19 11:29:20;;;;;;;61.58;27.98;;;2.30;99.90;;;;;;4966517;28;20125;-69
2022/12/19 11:31:47;;;;;;;55.47;26.52;;;2.30;99.90;;;;;;4974827;28;20031;-69
2022/12/19 11:34:20;;;;;;;66.20;29.25;;;2.40;99.90;;;;;;4974652;28;20072;-69
2022/12/19 11:37:01;;;;;;;61.08;29.13;;;2.30;99.90;;;;;;4974109;28;20042;-69
2022/12/19 11:39:45;;;;;;;64.25;28.83;;;2.30;99.90;;;;;;4974548;28;20027;-69
2022/12/19 11:42:19;;;;;;;62.50;28.77;;;2.40;99.90;;;;;;4974697;28;20019;-69
2022/12/19 11:44:57;;;;;;;62.90;30.00;;;2.40;99.90;;;;;;4974666;28;20027;-69
2022/12/19 11:47:44;;;;;;;59.20;27.40;;;2.40;99.90;;;;;;4973386;28;20043;-69
2022/12/19 11:50:23;;;;;;;59.65;27.67;;;2.40;99.90;;;;;;4973975;28;20043;-69
2022/12/19 11:53:29;;;;;;;61.90;28.42;;;2.40;99.90;;;;;;4974709;28;20034;-69
2022/12/19 11:56:05;;;;;;;52.67;28.10;;;2.50;99.90;;;;;;4976257;28;20057;-69
2022/12/19 11:58:31;;;;;;;61.30;28.80;;;2.50;99.90;;;;;;4977951;28;20047;-69
2022/12/19 12:00:59;;;;;;;62.15;29.45;;;2.60;99.90;;;;;;4978871;28;20057;-69
2022/12/19 12:03:57;;;;;;;60.67;28.42;;;2.60;99.90;;;;;;4978587;28;20023;-69
2022/12/19 12:06:27;;;;;;;58.95;27.02;;;2.60;99.90;;;;;;4978523;28;20023;-69
2022/12/19 12:09:14;;;;;;;67.18;30.33;;;2.60;99.90;;;;;;4992616;28;20019;-69
2022/12/19 12:11:40;;;;;;;58.17;27.02;;;2.70;99.90;;;;;;4978450;28;20382;-69
2022/12/19 12:14:33;;;;;;;57.58;27.10;;;2.70;99.90;;;;;;4977887;28;20031;-69
2022/12/19 12:17:13;;;;;;;51.08;25.38;;;2.70;99.90;;;;;;4992416;28;20505;-69
2022/12/19 12:19:47;;;;;;;53.90;25.35;;;2.70;99.90;;;;;;4978427;28;20035;-69
2022/12/19 12:22:33;;;;;;;55.65;25.75;;;2.70;99.90;;;;;;4978060;28;20019;-69
2022/12/19 12:25:40;;;;;;;42.95;22.58;;;2.80;99.90;;;;;;4978090;28;20109;-69
2022/12/19 12:28:21;;;;;;;49.90;23.45;;;2.80;99.90;;;;;;4965813;28;20507;-69
2022/12/19 12:30:54;;;;;;;45.53;23.67;;;2.80;99.90;;;;;;4977999;28;20027;-69
2022/12/19 12:33:49;;;;;;;48.05;23.10;;;2.90;99.90;;;;;;4978217;28;20394;-70
2022/12/19 12:36:47;;;;;;;41.15;21.55;;;2.80;99.90;;;;;;4977594;28;20034;-69
2022/12/19 12:39:19;;;;;;;50.20;23.20;;;2.80;99.90;;;;;;4977718;28;20030;-69
2022/12/19 12:42:03;;;;;;;43.95;22.58;;;2.90;99.90;;;;;;4977664;28;20019;-69
2022/12/19 12:44:35;;;;;;;39.53;20.48;;;3.00;99.90;;;;;;4977613;28;20371;-69
2022/12/19 12:47:04;;;;;;;42.70;20.73;;;3.10;99.90;;;;;;4977000;28;20022;-69
2022/12/19 12:49:40;;;;;;;39.42;21.08;;;3.20;99.90;;;;;;4977288;28;20023;-69
2022/12/19 12:52:12;;;;;;;39.22;20.65;;;3.20;99.90;;;;;;4976468;28;20084;-69
2022/12/19 12:54:41;;;;;;;37.25;20.85;;;3.30;99.90;;;;;;4977612;28;20085;-70